createdAt,value
2023-05-19T00:00:05.208Z,4.50
2023-05-19T00:02:35.429Z,4.95
2023-05-19T00:05:02.652Z,4.97
2023-05-19T00:07:33.130Z,4.80
2023-05-19T00:10:00.636Z,4.95
2023-05-19T00:12:28.032Z,4.88
2023-05-19T00:14:55.174Z,4.80
2023-05-19T00:17:24.973Z,4.70
2023-05-19T00:19:53.005Z,5.32
2023-05-19T00:22:20.186Z,4.97
2023-05-19T00:24:47.019Z,4.80
2023-05-19T00:27:14.000Z,4.90
2023-05-19T00:29:43.511Z,4.68
2023-05-19T00:32:10.526Z,4.85
2023-05-19T00:34:40.027Z,4.63
2023-05-19T00:37:07.222Z,4.40
2023-05-19T00:39:34.386Z,4.88
2023-05-19T00:42:01.425Z,4.40
2023-05-19T00:44:28.768Z,4.72
2023-05-19T00:46:58.068Z,4.60
2023-05-19T00:49:25.097Z,5.00
2023-05-19T00:51:52.319Z,4.97
2023-05-19T00:54:20.933Z,4.65
2023-05-19T00:56:50.004Z,4.70
2023-05-19T00:59:17.651Z,4.15
2023-05-19T01:01:46.149Z,4.82
2023-05-19T01:04:17.322Z,5.35
2023-05-19T01:06:44.363Z,4.85
2023-05-19T01:09:12.283Z,4.65
2023-05-19T01:11:39.392Z,4.55
2023-05-19T01:14:06.388Z,4.97
2023-05-19T01:16:33.280Z,5.07
2023-05-19T01:19:14.697Z,4.78
2023-05-19T01:21:53.895Z,5.30
2023-05-19T01:24:24.288Z,4.45
2023-05-19T01:27:17.971Z,5.25
2023-05-19T01:30:12.975Z,5.03
2023-05-19T01:32:42.378Z,4.95
2023-05-19T01:35:12.802Z,4.82
2023-05-19T01:37:41.438Z,4.70
2023-05-19T01:40:12.018Z,5.05
2023-05-19T01:42:42.562Z,4.90
2023-05-19T01:45:12.469Z,4.32
2023-05-19T01:47:42.933Z,4.10
2023-05-19T01:50:11.267Z,5.20
2023-05-19T01:52:40.601Z,5.22
2023-05-19T01:55:10.728Z,4.90
2023-05-19T01:57:56.628Z,4.82
2023-05-19T02:00:37.659Z,5.60
2023-05-19T02:03:07.532Z,5.25
2023-05-19T02:05:59.625Z,4.78
2023-05-19T02:08:58.989Z,5.20
2023-05-19T02:11:42.165Z,5.10
2023-05-19T02:14:17.152Z,5.22
2023-05-19T02:16:49.110Z,5.53
2023-05-19T02:19:28.128Z,5.15
2023-05-19T02:21:55.424Z,5.10
2023-05-19T02:24:23.147Z,5.60
2023-05-19T02:26:53.299Z,5.55
2023-05-19T02:29:22.920Z,5.32
2023-05-19T02:31:50.008Z,5.70
2023-05-19T02:34:16.849Z,4.72
2023-05-19T02:36:44.398Z,5.55
2023-05-19T02:39:12.370Z,5.57
2023-05-19T02:41:39.331Z,5.20
2023-05-19T02:44:06.877Z,5.32
2023-05-19T02:46:34.406Z,5.80
2023-05-19T02:49:01.382Z,5.93
2023-05-19T02:51:28.510Z,5.60
2023-05-19T02:54:00.910Z,4.95
2023-05-19T02:56:28.407Z,5.30
2023-05-19T02:58:55.493Z,5.60
2023-05-19T03:01:23.301Z,6.00
2023-05-19T03:03:50.489Z,5.47
2023-05-19T03:06:18.255Z,5.50
2023-05-19T03:08:51.634Z,5.32
2023-05-19T03:11:21.376Z,5.50
2023-05-19T03:13:48.226Z,5.80
2023-05-19T03:16:15.615Z,5.70
2023-05-19T03:18:43.486Z,5.97
2023-05-19T03:21:15.648Z,5.88
2023-05-19T03:23:42.582Z,6.28
2023-05-19T03:26:09.396Z,6.05
2023-05-19T03:28:36.316Z,5.78
2023-05-19T03:31:03.726Z,6.13
2023-05-19T03:33:30.736Z,5.43
2023-05-19T03:35:57.698Z,5.90
2023-05-19T03:38:26.773Z,6.45
2023-05-19T03:40:54.067Z,6.20
2023-05-19T03:43:21.289Z,6.20
2023-05-19T03:45:50.611Z,6.10
2023-05-19T03:48:23.104Z,5.60
2023-05-19T03:50:50.423Z,5.97
2023-05-19T03:53:23.733Z,5.68
2023-05-19T03:55:51.015Z,6.28
2023-05-19T03:58:17.970Z,6.50
2023-05-19T04:00:44.872Z,6.03
2023-05-19T04:03:11.827Z,6.55
2023-05-19T04:05:41.356Z,6.40
2023-05-19T04:08:11.232Z,6.68
2023-05-19T04:10:38.355Z,6.15
2023-05-19T04:13:07.751Z,6.13
2023-05-19T04:15:34.626Z,5.70
2023-05-19T04:18:01.873Z,6.03
2023-05-19T04:20:29.215Z,6.80
2023-05-19T04:22:56.149Z,6.30
2023-05-19T04:25:25.367Z,6.78
2023-05-19T04:27:58.005Z,6.03
2023-05-19T04:30:28.971Z,7.57
2023-05-19T04:32:58.451Z,7.10
2023-05-19T04:35:25.427Z,7.32
2023-05-19T04:37:54.625Z,6.75
2023-05-19T04:40:23.836Z,7.15
2023-05-19T04:42:54.177Z,6.70
2023-05-19T04:45:23.674Z,6.90
2023-05-19T04:47:53.831Z,7.72
2023-05-19T04:50:26.683Z,6.97
2023-05-19T04:52:59.103Z,7.43
2023-05-19T04:55:28.454Z,7.68
2023-05-19T04:57:57.666Z,7.53
2023-05-19T05:00:25.496Z,6.32
2023-05-19T05:02:58.097Z,6.00
2023-05-19T05:05:25.209Z,5.70
2023-05-19T05:07:54.376Z,6.90
2023-05-19T05:10:21.832Z,5.18
2023-05-19T05:12:54.078Z,5.53
2023-05-19T05:15:28.316Z,5.63
2023-05-19T05:17:56.213Z,4.88
2023-05-19T05:20:23.451Z,5.25
2023-05-19T05:22:52.936Z,5.28
2023-05-19T05:25:20.932Z,5.10
2023-05-19T05:27:52.828Z,5.63
2023-05-19T05:30:19.790Z,5.10
2023-05-19T05:32:46.808Z,4.82
2023-05-19T05:35:13.875Z,5.28
2023-05-19T05:37:43.317Z,4.78
2023-05-19T05:40:13.931Z,5.32
2023-05-19T05:42:42.948Z,4.60
2023-05-19T05:45:12.465Z,4.90
2023-05-19T05:47:41.495Z,4.55
2023-05-19T05:50:10.324Z,5.03
2023-05-19T05:52:38.199Z,5.03
2023-05-19T05:55:06.162Z,4.82
2023-05-19T05:57:35.504Z,5.15
2023-05-19T06:00:20.305Z,4.38
2023-05-19T06:02:51.462Z,4.63
2023-05-19T06:05:18.460Z,4.90
2023-05-19T06:07:45.319Z,4.47
2023-05-19T06:10:15.374Z,4.85
2023-05-19T06:12:43.430Z,4.53
2023-05-19T06:15:10.612Z,4.60
2023-05-19T06:17:38.118Z,4.75
2023-05-19T06:20:11.599Z,4.43
2023-05-19T06:22:41.091Z,4.97
2023-05-19T06:25:26.255Z,4.70
2023-05-19T06:27:54.118Z,4.13
2023-05-19T06:30:23.992Z,4.88
2023-05-19T06:32:51.014Z,4.50
2023-05-19T06:35:18.244Z,4.60
2023-05-19T06:37:48.986Z,4.30
2023-05-19T06:40:20.815Z,3.65
2023-05-19T06:42:47.984Z,4.13
2023-05-19T06:45:15.018Z,4.38
2023-05-19T06:47:42.770Z,4.75
2023-05-19T06:50:10.627Z,4.60
2023-05-19T06:52:38.304Z,3.97
2023-05-19T06:55:05.759Z,4.50
2023-05-19T06:57:36.164Z,4.60
2023-05-19T07:00:04.213Z,3.95
2023-05-19T07:02:33.128Z,4.13
2023-05-19T07:04:59.774Z,4.18
2023-05-19T07:07:26.952Z,4.47
2023-05-19T07:09:53.556Z,3.75
2023-05-19T07:12:20.192Z,4.32
2023-05-19T07:14:46.901Z,4.07
2023-05-19T07:17:13.545Z,4.00
2023-05-19T07:19:42.382Z,3.90
2023-05-19T07:22:09.027Z,4.60
2023-05-19T07:24:35.833Z,4.20
2023-05-19T07:27:04.730Z,4.25
2023-05-19T07:29:31.444Z,4.15
2023-05-19T07:31:58.358Z,3.92
2023-05-19T07:34:25.627Z,4.28
2023-05-19T07:36:54.892Z,4.18
2023-05-19T07:39:25.278Z,3.88
2023-05-19T07:41:55.713Z,3.53
2023-05-19T07:44:22.424Z,4.00
2023-05-19T07:46:51.216Z,4.00
2023-05-19T07:49:19.974Z,3.50
2023-05-19T07:51:48.816Z,3.15
2023-05-19T07:54:15.686Z,3.63
2023-05-19T07:56:42.361Z,3.67
2023-05-19T07:59:11.453Z,3.35
2023-05-19T08:01:38.388Z,3.60
2023-05-19T08:04:05.627Z,3.40
2023-05-19T08:06:32.435Z,3.78
2023-05-19T08:09:01.894Z,3.75
2023-05-19T08:11:29.298Z,3.70
2023-05-19T08:13:55.995Z,3.55
2023-05-19T08:16:22.877Z,3.20
2023-05-19T08:18:52.024Z,3.70
2023-05-19T08:21:18.735Z,3.42
2023-05-19T08:23:45.625Z,3.78
2023-05-19T08:26:12.614Z,3.50
2023-05-19T08:28:41.545Z,3.83
2023-05-19T08:31:08.377Z,3.80
2023-05-19T08:33:34.980Z,3.03
2023-05-19T08:36:01.736Z,2.97
2023-05-19T08:38:28.596Z,2.70
2023-05-19T08:40:55.391Z,2.88
2023-05-19T08:43:22.232Z,2.47
2023-05-19T08:45:48.975Z,3.10
2023-05-19T08:48:19.730Z,2.42
2023-05-19T08:51:00.206Z,2.42
2023-05-19T08:53:36.867Z,2.70
2023-05-19T08:56:15.094Z,2.35
2023-05-19T08:58:44.317Z,2.33
2023-05-19T09:01:19.897Z,2.15
2023-05-19T09:03:49.985Z,2.28
2023-05-19T09:06:17.203Z,2.47
2023-05-19T09:08:45.049Z,2.38
2023-05-19T09:11:12.553Z,2.38
2023-05-19T09:13:39.316Z,1.98
2023-05-19T09:16:08.823Z,2.50
2023-05-19T09:18:39.793Z,1.77
2023-05-19T09:21:07.562Z,1.60
2023-05-19T09:23:34.980Z,1.70
2023-05-19T09:26:04.935Z,1.50
2023-05-19T09:28:35.681Z,1.25
2023-05-19T09:31:03.661Z,1.33
2023-05-19T09:33:32.938Z,1.27
2023-05-19T09:36:03.966Z,1.90
2023-05-19T09:38:30.661Z,1.70
2023-05-19T09:40:59.061Z,1.50
2023-05-19T09:43:30.057Z,1.67
2023-05-19T09:46:08.183Z,2.25
2023-05-19T09:48:36.652Z,1.90
2023-05-19T09:51:08.162Z,1.90
2023-05-19T09:53:35.175Z,1.90
2023-05-19T09:56:03.509Z,2.28
2023-05-19T09:58:35.470Z,1.45
2023-05-19T10:01:05.701Z,1.65
2023-05-19T10:03:33.831Z,1.42
2023-05-19T10:06:01.730Z,1.67
2023-05-19T10:08:32.024Z,1.90
2023-05-19T10:10:59.546Z,1.85
2023-05-19T10:13:27.478Z,2.33
2023-05-19T10:15:58.595Z,1.73
2023-05-19T10:18:27.144Z,1.80
2023-05-19T10:20:54.829Z,2.00
2023-05-19T10:23:22.702Z,2.08
2023-05-19T10:25:52.732Z,1.73
2023-05-19T10:28:25.583Z,2.08
2023-05-19T10:30:58.071Z,1.85
2023-05-19T10:34:05.915Z,1.70
2023-05-19T10:36:46.422Z,2.08
2023-05-19T10:39:31.457Z,1.30
2023-05-19T10:42:27.130Z,1.35
2023-05-19T10:45:05.577Z,1.65
2023-05-19T10:47:33.692Z,2.22
2023-05-19T10:50:06.710Z,1.80
2023-05-19T10:52:37.415Z,3.08
2023-05-19T10:55:05.019Z,2.28
2023-05-19T10:57:34.753Z,2.00
2023-05-19T11:00:25.712Z,1.65
2023-05-19T11:02:56.377Z,1.58
2023-05-19T11:05:29.509Z,1.90
2023-05-19T11:08:02.568Z,2.35
2023-05-19T11:10:29.371Z,1.83
2023-05-19T11:12:58.298Z,2.53
2023-05-19T11:15:28.366Z,2.40
2023-05-19T11:17:55.334Z,1.80
2023-05-19T11:20:24.245Z,2.20
2023-05-19T11:23:10.677Z,2.45
2023-05-19T11:25:48.845Z,2.53
2023-05-19T11:28:25.861Z,1.88
2023-05-19T11:30:57.876Z,2.58
2023-05-19T11:33:27.498Z,2.22
2023-05-19T11:36:03.098Z,2.83
2023-05-19T11:38:32.694Z,2.20
2023-05-19T11:41:03.712Z,2.35
2023-05-19T11:43:30.560Z,2.78
2023-05-19T11:45:57.374Z,2.42
2023-05-19T11:48:26.371Z,2.17
2023-05-19T11:50:53.532Z,1.80
2023-05-19T11:53:22.522Z,2.00
2023-05-19T11:55:52.022Z,2.05
2023-05-19T11:58:26.863Z,2.38
2023-05-19T12:00:54.213Z,1.83
2023-05-19T12:03:28.807Z,2.08
2023-05-19T12:05:56.198Z,1.83
2023-05-19T12:08:22.999Z,2.58
2023-05-19T12:10:51.037Z,1.92
2023-05-19T12:13:17.873Z,2.05
2023-05-19T12:15:44.681Z,1.90
2023-05-19T12:18:11.430Z,1.77
2023-05-19T12:20:38.283Z,1.90
2023-05-19T12:23:06.104Z,2.63
2023-05-19T12:25:33.184Z,1.92
2023-05-19T12:28:04.655Z,1.98
2023-05-19T12:30:33.223Z,1.90
2023-05-19T12:33:04.510Z,2.00
2023-05-19T12:35:36.275Z,2.10
2023-05-19T12:38:09.709Z,1.70
2023-05-19T12:40:37.742Z,2.05
2023-05-19T12:43:05.792Z,1.77
2023-05-19T12:45:37.077Z,2.05
2023-05-19T12:48:06.652Z,2.30
2023-05-19T12:50:34.510Z,2.28
2023-05-19T12:53:01.698Z,1.80
2023-05-19T12:55:30.761Z,2.00
2023-05-19T12:57:58.306Z,1.70
2023-05-19T13:00:32.808Z,2.30
2023-05-19T13:03:07.803Z,1.90
2023-05-19T13:05:37.916Z,2.35
2023-05-19T13:08:09.990Z,1.80
2023-05-19T13:10:40.715Z,2.38
2023-05-19T13:13:08.468Z,1.90
2023-05-19T13:15:38.925Z,2.28
2023-05-19T13:18:12.201Z,1.90
2023-05-19T13:20:40.720Z,2.08
2023-05-19T13:23:07.852Z,1.85
2023-05-19T13:25:34.956Z,2.40
2023-05-19T13:28:05.176Z,1.75
2023-05-19T13:30:33.730Z,1.95
2023-05-19T13:33:03.862Z,2.17
2023-05-19T13:35:36.813Z,2.22
2023-05-19T13:38:10.441Z,1.92
2023-05-19T13:40:39.881Z,2.55
2023-05-19T13:43:07.839Z,2.72
2023-05-19T13:45:39.348Z,2.05
2023-05-19T13:48:07.471Z,2.55
2023-05-19T13:50:34.415Z,2.10
2023-05-19T13:53:01.083Z,1.98
2023-05-19T13:55:27.779Z,1.73
2023-05-19T13:57:54.465Z,2.08
2023-05-19T14:00:21.536Z,1.77
2023-05-19T14:02:48.316Z,2.83
2023-05-19T14:05:14.942Z,1.58
2023-05-19T14:07:42.543Z,1.88
2023-05-19T14:10:12.190Z,2.13
2023-05-19T14:12:55.117Z,1.73
2023-05-19T14:15:26.640Z,1.70
2023-05-19T14:17:53.700Z,1.88
2023-05-19T14:20:20.448Z,2.13
2023-05-19T14:22:49.416Z,2.42
2023-05-19T14:25:16.154Z,2.22
2023-05-19T14:27:42.913Z,1.48
2023-05-19T14:30:10.313Z,2.00
2023-05-19T14:32:36.993Z,2.22
2023-05-19T14:35:04.010Z,2.00
2023-05-19T14:37:32.191Z,2.20
2023-05-19T14:39:59.980Z,1.83
2023-05-19T14:42:26.709Z,2.20
2023-05-19T14:44:56.013Z,2.55
2023-05-19T14:47:22.853Z,1.90
2023-05-19T14:49:49.818Z,1.83
2023-05-19T14:52:18.753Z,1.58
2023-05-19T14:54:45.448Z,2.17
2023-05-19T14:57:12.072Z,1.83
2023-05-19T14:59:39.344Z,1.95
2023-05-19T15:02:06.192Z,1.85
2023-05-19T15:04:33.027Z,1.88
2023-05-19T15:07:09.671Z,2.17
2023-05-19T15:09:37.218Z,2.10
2023-05-19T15:12:04.031Z,2.00
2023-05-19T15:14:31.450Z,1.85
2023-05-19T15:16:58.550Z,1.95
2023-05-19T15:19:27.942Z,2.30
2023-05-19T15:21:55.069Z,1.95
2023-05-19T15:24:24.340Z,2.38
2023-05-19T15:26:52.077Z,2.17
2023-05-19T15:29:18.743Z,1.67
2023-05-19T15:31:45.797Z,1.90
2023-05-19T15:34:12.765Z,2.03
2023-05-19T15:36:39.491Z,1.98
2023-05-19T15:39:06.584Z,2.08
2023-05-19T15:41:33.275Z,1.70
2023-05-19T15:44:00.644Z,1.95
2023-05-19T15:46:27.602Z,2.53
2023-05-19T15:48:54.610Z,1.85
2023-05-19T15:51:21.494Z,1.77
2023-05-19T15:53:48.546Z,1.83
2023-05-19T15:56:15.462Z,2.30
2023-05-19T15:58:42.474Z,1.80
2023-05-19T16:01:14.074Z,1.40
2023-05-19T16:03:40.923Z,1.80
2023-05-19T16:06:07.760Z,1.73
2023-05-19T16:08:34.490Z,1.85
2023-05-19T16:11:01.917Z,1.88
2023-05-19T16:13:30.439Z,2.00
2023-05-19T16:15:57.164Z,1.90
2023-05-19T16:18:23.859Z,1.90
2023-05-19T16:20:53.531Z,1.90
2023-05-19T16:23:20.235Z,1.60
2023-05-19T16:25:49.216Z,2.17
2023-05-19T16:28:15.885Z,1.73
2023-05-19T16:30:43.371Z,1.60
2023-05-19T16:33:12.767Z,1.70
2023-05-19T16:35:39.587Z,1.90
2023-05-19T16:38:10.968Z,1.52
2023-05-19T16:40:38.211Z,2.00
2023-05-19T16:43:04.983Z,1.90
2023-05-19T16:45:31.605Z,1.80
2023-05-19T16:47:58.257Z,2.00
2023-05-19T16:50:25.058Z,1.80
2023-05-19T16:52:51.677Z,2.05
2023-05-19T16:55:20.349Z,2.00
2023-05-19T16:58:15.262Z,2.00
2023-05-19T17:01:05.850Z,2.55
2023-05-19T17:03:43.781Z,1.90
2023-05-19T17:06:10.849Z,2.17
2023-05-19T17:08:37.833Z,1.95
2023-05-19T17:11:06.537Z,1.98
2023-05-19T17:13:36.661Z,1.90
2023-05-19T17:16:03.432Z,2.33
2023-05-19T17:18:31.461Z,1.83
2023-05-19T17:21:03.375Z,2.17
2023-05-19T17:23:30.222Z,1.65
2023-05-19T17:25:56.947Z,1.95
2023-05-19T17:28:23.730Z,2.35
2023-05-19T17:30:50.631Z,2.08
2023-05-19T17:33:17.576Z,2.05
2023-05-19T17:35:44.244Z,2.55
2023-05-19T17:38:13.650Z,2.13
2023-05-19T17:40:41.923Z,2.55
2023-05-19T17:43:09.004Z,2.05
2023-05-19T17:45:35.665Z,2.03
2023-05-19T17:48:05.502Z,1.83
2023-05-19T17:50:34.646Z,2.15
2023-05-19T17:53:01.990Z,2.17
2023-05-19T17:55:30.987Z,2.40
2023-05-19T17:57:57.906Z,1.90
2023-05-19T18:00:30.490Z,2.08
2023-05-19T18:02:57.669Z,2.08
2023-05-19T18:05:25.121Z,2.17
2023-05-19T18:07:55.809Z,1.90
2023-05-19T18:10:24.888Z,2.08
2023-05-19T18:12:51.555Z,2.15
2023-05-19T18:15:20.456Z,2.00
2023-05-19T18:17:50.208Z,1.52
2023-05-19T18:20:16.861Z,1.70
2023-05-19T18:22:47.019Z,1.60
2023-05-19T18:25:13.890Z,2.00
2023-05-19T18:27:42.645Z,1.80
2023-05-19T18:30:09.508Z,2.00
2023-05-19T18:32:37.294Z,1.98
2023-05-19T18:35:08.020Z,2.00
2023-05-19T18:37:34.893Z,2.00
2023-05-19T18:40:01.764Z,2.05
2023-05-19T18:42:28.533Z,2.00
2023-05-19T18:44:55.241Z,2.10
2023-05-19T18:47:24.332Z,2.08
2023-05-19T18:49:50.970Z,2.13
2023-05-19T18:52:19.043Z,1.60
2023-05-19T18:54:47.151Z,1.73
2023-05-19T18:57:16.689Z,2.00
2023-05-19T18:59:46.709Z,1.58
2023-05-19T19:02:13.321Z,1.90
2023-05-19T19:04:40.095Z,2.08
2023-05-19T19:07:06.720Z,2.00
2023-05-19T19:09:33.389Z,2.00
2023-05-19T19:12:00.215Z,1.92
2023-05-19T19:14:26.780Z,1.88
2023-05-19T19:16:53.482Z,2.17
2023-05-19T19:19:20.527Z,1.88
2023-05-19T19:21:47.326Z,1.83
2023-05-19T19:24:15.126Z,1.67
2023-05-19T19:26:44.844Z,1.90
2023-05-19T19:29:25.614Z,2.22
2023-05-19T19:31:52.943Z,1.75
2023-05-19T19:34:20.558Z,1.90
2023-05-19T19:36:50.257Z,1.50
2023-05-19T19:39:17.499Z,1.67
2023-05-19T19:41:45.115Z,2.13
2023-05-19T19:44:14.289Z,1.70
2023-05-19T19:46:41.280Z,1.70
2023-05-19T19:49:09.211Z,2.15
2023-05-19T19:51:36.554Z,1.83
2023-05-19T19:54:03.147Z,1.70
2023-05-19T19:56:29.798Z,1.90
2023-05-19T19:58:59.146Z,2.67
2023-05-19T20:01:28.479Z,2.75
2023-05-19T20:03:56.792Z,1.70
2023-05-19T20:06:23.614Z,1.63
2023-05-19T20:08:52.548Z,1.88
2023-05-19T20:11:19.899Z,1.60
2023-05-19T20:13:47.166Z,1.83
2023-05-19T20:16:18.572Z,2.10
2023-05-19T20:18:48.508Z,2.10
2023-05-19T20:21:15.300Z,1.90
2023-05-19T20:23:42.063Z,2.30
2023-05-19T20:26:12.571Z,1.80
2023-05-19T20:28:40.358Z,2.00
2023-05-19T20:31:07.425Z,2.15
2023-05-19T20:33:34.277Z,2.03
2023-05-19T20:36:01.129Z,2.20
2023-05-19T20:38:27.747Z,2.40
2023-05-19T20:40:54.942Z,2.10
2023-05-19T20:43:21.623Z,2.17
2023-05-19T20:45:48.391Z,1.98
2023-05-19T20:48:16.018Z,2.15
2023-05-19T20:50:45.826Z,2.30
2023-05-19T20:53:12.437Z,2.50
2023-05-19T20:55:39.147Z,2.50
2023-05-19T20:58:08.476Z,2.50
2023-05-19T21:00:35.378Z,2.25
2023-05-19T21:03:02.212Z,2.40
2023-05-19T21:05:49.227Z,2.20
2023-05-19T21:08:16.102Z,2.65
2023-05-19T21:10:45.192Z,2.50
2023-05-19T21:13:12.272Z,2.78
2023-05-19T21:15:38.984Z,2.53
2023-05-19T21:18:06.751Z,2.67
2023-05-19T21:20:33.610Z,2.15
2023-05-19T21:23:00.579Z,2.25
2023-05-19T21:25:27.896Z,2.63
2023-05-19T21:27:56.065Z,2.40
2023-05-19T21:30:23.658Z,2.30
2023-05-19T21:32:50.638Z,2.53
2023-05-19T21:35:17.360Z,2.40
2023-05-19T21:37:46.324Z,2.45
2023-05-19T21:40:13.010Z,1.90
2023-05-19T21:42:39.688Z,2.15
2023-05-19T21:45:06.957Z,2.40
2023-05-19T21:47:33.785Z,2.10
2023-05-19T21:50:00.637Z,2.25
2023-05-19T21:52:27.820Z,2.55
2023-05-19T21:54:56.869Z,2.20
2023-05-19T21:57:23.471Z,2.17
2023-05-19T21:59:52.579Z,2.15
2023-05-19T22:02:19.200Z,2.42
2023-05-19T22:04:46.043Z,2.20
2023-05-19T22:07:15.108Z,2.08
2023-05-19T22:09:41.674Z,2.08
2023-05-19T22:12:08.335Z,2.13
2023-05-19T22:14:35.879Z,2.13
2023-05-19T22:17:02.529Z,2.30
2023-05-19T22:19:29.294Z,2.28
2023-05-19T22:22:09.863Z,1.95
2023-05-19T22:24:39.810Z,2.28
2023-05-19T22:27:08.094Z,2.42
2023-05-19T22:29:34.671Z,2.30
2023-05-19T22:32:01.530Z,2.40
2023-05-19T22:34:28.249Z,2.58
2023-05-19T22:36:54.835Z,2.17
2023-05-19T22:39:23.653Z,2.55
2023-05-19T22:41:52.513Z,2.50
2023-05-19T22:44:19.681Z,2.35
2023-05-19T22:46:46.435Z,2.15
2023-05-19T22:49:15.564Z,2.42
2023-05-19T22:51:44.444Z,2.75
2023-05-19T22:54:11.436Z,2.20
2023-05-19T22:56:40.298Z,2.63
2023-05-19T22:59:09.452Z,2.63
2023-05-19T23:01:36.385Z,2.08
2023-05-19T23:04:03.505Z,2.42
2023-05-19T23:06:31.390Z,2.28
2023-05-19T23:09:02.678Z,2.60
2023-05-19T23:11:29.581Z,2.92
2023-05-19T23:13:56.442Z,2.58
2023-05-19T23:16:23.071Z,2.67
2023-05-19T23:18:49.783Z,2.88
2023-05-19T23:21:16.576Z,1.92
2023-05-19T23:23:43.240Z,2.60
2023-05-19T23:26:10.061Z,2.45
2023-05-19T23:28:36.713Z,2.75
2023-05-19T23:31:05.731Z,2.75
2023-05-19T23:33:32.363Z,3.38
2023-05-19T23:35:59.522Z,2.60
2023-05-19T23:38:27.050Z,2.60
2023-05-19T23:40:53.653Z,2.72
2023-05-19T23:43:20.244Z,2.95
2023-05-19T23:45:49.094Z,3.25
2023-05-19T23:48:15.752Z,2.85
2023-05-19T23:50:45.348Z,2.30
2023-05-19T23:53:11.988Z,2.70
2023-05-19T23:55:38.677Z,2.97
2023-05-19T23:58:05.612Z,3.13
